sensor_id;sensor_type;location;lat;lon;timestamp;pressure;altitude;pressure_sealevel;temperature;humidity
43503;BME280;29098;48.184;16.298;2022-09-09T00:01:28;99201.47;;;15.06;96.93
43503;BME280;29098;48.184;16.298;2022-09-09T00:06:49;99186.78;;;15.03;96.05
43503;BME280;29098;48.184;16.298;2022-09-09T00:09:18;99192.56;;;14.93;98.18
43503;BME280;29098;48.184;16.298;2022-09-09T00:14:34;99199.47;;;15.01;96.61
43503;BME280;29098;48.184;16.298;2022-09-09T00:17:03;99203.63;;;14.90;98.56
43503;BME280;29098;48.184;16.298;2022-09-09T00:27:40;99196.97;;;14.74;100.00
43503;BME280;29098;48.184;16.298;2022-09-09T00:29:47;99196.78;;;14.69;99.06
43503;BME280;29098;48.184;16.298;2022-09-09T00:32:18;99203.13;;;14.68;100.00
43503;BME280;29098;48.184;16.298;2022-09-09T00:34:48;99187.84;;;14.57;100.00
43503;BME280;29098;48.184;16.298;2022-09-09T00:37:14;99189.50;;;14.51;100.00
43503;BME280;29098;48.184;16.298;2022-09-09T00:39:41;99190.69;;;14.62;99.68
43503;BME280;29098;48.184;16.298;2022-09-09T00:42:18;99192.81;;;14.46;100.00
43503;BME280;29098;48.184;16.298;2022-09-09T00:44:51;99188.69;;;14.50;100.00
43503;BME280;29098;48.184;16.298;2022-09-09T00:47:20;99192.34;;;14.56;99.12
43503;BME280;29098;48.184;16.298;2022-09-09T00:57:28;99196.00;;;14.55;99.65
43503;BME280;29098;48.184;16.298;2022-09-09T01:00:16;99204.06;;;14.35;100.00
43503;BME280;29098;48.184;16.298;2022-09-09T01:05:20;99203.03;;;14.43;100.00
43503;BME280;29098;48.184;16.298;2022-09-09T01:07:50;99203.03;;;14.36;100.00
43503;BME280;29098;48.184;16.298;2022-09-09T01:13:22;99211.84;;;14.30;100.00
43503;BME280;29098;48.184;16.298;2022-09-09T01:15:48;99214.91;;;14.27;100.00
43503;BME280;29098;48.184;16.298;2022-09-09T01:18:15;99214.94;;;14.13;100.00
43503;BME280;29098;48.184;16.298;2022-09-09T01:20:48;99216.16;;;14.17;100.00
43503;BME280;29098;48.184;16.298;2022-09-09T01:26:48;99226.56;;;14.12;100.00
43503;BME280;29098;48.184;16.298;2022-09-09T01:28:43;99228.78;;;14.22;100.00
43503;BME280;29098;48.184;16.298;2022-09-09T01:31:09;99231.03;;;14.25;100.00
43503;BME280;29098;48.184;16.298;2022-09-09T01:33:36;99230.47;;;14.09;100.00
43503;BME280;29098;48.184;16.298;2022-09-09T01:36:10;99235.97;;;14.01;100.00
43503;BME280;29098;48.184;16.298;2022-09-09T01:38:37;99226.81;;;13.97;100.00
43503;BME280;29098;48.184;16.298;2022-09-09T01:41:03;99225.56;;;13.93;100.00
43503;BME280;29098;48.184;16.298;2022-09-09T01:43:28;99228.44;;;13.84;100.00
43503;BME280;29098;48.184;16.298;2022-09-09T01:45:54;99230.47;;;13.89;100.00
43503;BME280;29098;48.184;16.298;2022-09-09T01:48:24;99235.78;;;13.89;100.00
43503;BME280;29098;48.184;16.298;2022-09-09T01:50:49;99241.91;;;13.90;100.00
43503;BME280;29098;48.184;16.298;2022-09-09T01:53:15;99239.06;;;13.91;100.00
43503;BME280;29098;48.184;16.298;2022-09-09T01:55:42;99238.63;;;13.81;100.00
43503;BME280;29098;48.184;16.298;2022-09-09T01:58:17;99230.91;;;13.79;100.00
43503;BME280;29098;48.184;16.298;2022-09-09T02:00:54;99225.19;;;13.82;100.00
43503;BME280;29098;48.184;16.298;2022-09-09T02:03:29;99227.63;;;13.77;100.00
43503;BME280;29098;48.184;16.298;2022-09-09T02:06:20;99225.81;;;13.64;100.00
43503;BME280;29098;48.184;16.298;2022-09-09T02:08:49;99230.09;;;13.79;100.00
43503;BME280;29098;48.184;16.298;2022-09-09T02:11:19;99231.31;;;13.83;100.00
43503;BME280;29098;48.184;16.298;2022-09-09T02:13:46;99228.03;;;13.81;100.00
43503;BME280;29098;48.184;16.298;2022-09-09T02:16:13;99228.03;;;13.94;100.00
43503;BME280;29098;48.184;16.298;2022-09-09T02:21:05;99223.56;;;13.95;100.00
43503;BME280;29098;48.184;16.298;2022-09-09T02:23:31;99223.16;;;13.91;100.00
43503;BME280;29098;48.184;16.298;2022-09-09T02:25:58;99231.09;;;13.84;100.00
43503;BME280;29098;48.184;16.298;2022-09-09T02:28:24;99215.81;;;13.87;100.00
43503;BME280;29098;48.184;16.298;2022-09-09T02:30:50;99224.78;;;13.92;100.00
43503;BME280;29098;48.184;16.298;2022-09-09T02:33:20;99223.97;;;13.85;100.00
43503;BME280;29098;48.184;16.298;2022-09-09T02:35:47;99215.03;;;13.79;100.00
43503;BME280;29098;48.184;16.298;2022-09-09T02:38:13;99223.56;;;13.95;99.82
43503;BME280;29098;48.184;16.298;2022-09-09T02:40:40;99220.28;;;13.86;100.00
43503;BME280;29098;48.184;16.298;2022-09-09T02:43:05;99230.28;;;13.91;100.00
43503;BME280;29098;48.184;16.298;2022-09-09T02:45:33;99225.00;;;13.77;100.00
43503;BME280;29098;48.184;16.298;2022-09-09T02:50:32;99227.06;;;13.68;100.00
43503;BME280;29098;48.184;16.298;2022-09-09T02:53:09;99228.25;;;13.73;100.00
43503;BME280;29098;48.184;16.298;2022-09-09T02:58:18;99232.53;;;13.74;100.00
43503;BME280;29098;48.184;16.298;2022-09-09T03:00:45;99233.16;;;13.62;100.00
43503;BME280;29098;48.184;16.298;2022-09-09T03:03:11;99226.00;;;13.63;100.00
43503;BME280;29098;48.184;16.298;2022-09-09T03:05:36;99231.13;;;13.64;100.00
43503;BME280;29098;48.184;16.298;2022-09-09T03:08:03;99229.91;;;13.53;100.00
43503;BME280;29098;48.184;16.298;2022-09-09T03:10:28;99224.41;;;13.55;100.00
43503;BME280;29098;48.184;16.298;2022-09-09T03:12:53;99228.25;;;13.59;100.00
43503;BME280;29098;48.184;16.298;2022-09-09T03:15:20;99228.66;;;13.63;100.00
43503;BME280;29098;48.184;16.298;2022-09-09T03:17:45;99219.91;;;13.62;100.00
43503;BME280;29098;48.184;16.298;2022-09-09T03:20:11;99219.09;;;13.55;100.00
43503;BME280;29098;48.184;16.298;2022-09-09T03:22:37;99222.34;;;13.57;100.00
43503;BME280;29098;48.184;16.298;2022-09-09T03:25:02;99229.28;;;13.45;100.00
43503;BME280;29098;48.184;16.298;2022-09-09T03:27:28;99215.44;;;13.56;100.00
43503;BME280;29098;48.184;16.298;2022-09-09T03:29:53;99215.03;;;13.52;100.00
43503;BME280;29098;48.184;16.298;2022-09-09T03:32:19;99217.69;;;13.46;100.00
43503;BME280;29098;48.184;16.298;2022-09-09T03:34:47;99215.44;;;13.56;100.00
43503;BME280;29098;48.184;16.298;2022-09-09T03:37:14;99213.56;;;13.43;100.00
43503;BME280;29098;48.184;16.298;2022-09-09T03:39:39;99216.25;;;13.56;100.00
43503;BME280;29098;48.184;16.298;2022-09-09T03:42:05;99211.16;;;13.55;100.00
43503;BME280;29098;48.184;16.298;2022-09-09T03:44:31;99208.09;;;13.45;100.00
43503;BME280;29098;48.184;16.298;2022-09-09T03:46:56;99214.22;;;13.45;100.00
43503;BME280;29098;48.184;16.298;2022-09-09T03:49:21;99222.31;;;13.43;100.00
43503;BME280;29098;48.184;16.298;2022-09-09T03:51:47;99219.31;;;13.53;100.00
43503;BME280;29098;48.184;16.298;2022-09-09T03:54:13;99226.81;;;13.43;100.00
43503;BME280;29098;48.184;16.298;2022-09-09T03:56:38;99217.06;;;13.57;100.00
43503;BME280;29098;48.184;16.298;2022-09-09T03:59:06;99219.31;;;13.47;100.00
43503;BME280;29098;48.184;16.298;2022-09-09T04:01:31;99223.34;;;13.36;100.00
43503;BME280;29098;48.184;16.298;2022-09-09T04:03:57;99228.44;;;13.44;100.00
43503;BME280;29098;48.184;16.298;2022-09-09T04:06:23;99227.44;;;13.38;100.00
43503;BME280;29098;48.184;16.298;2022-09-09T04:08:49;99232.69;;;13.25;100.00
43503;BME280;29098;48.184;16.298;2022-09-09T04:11:14;99234.94;;;13.28;100.00
43503;BME280;29098;48.184;16.298;2022-09-09T04:13:40;99220.69;;;13.22;100.00
43503;BME280;29098;48.184;16.298;2022-09-09T04:16:06;99223.53;;;13.14;100.00
43503;BME280;29098;48.184;16.298;2022-09-09T04:18:32;99229.22;;;13.18;100.00
43503;BME280;29098;48.184;16.298;2022-09-09T04:20:59;99228.63;;;13.15;100.00
43503;BME280;29098;48.184;16.298;2022-09-09T04:23:25;99229.22;;;13.11;100.00
43503;BME280;29098;48.184;16.298;2022-09-09T04:25:52;99236.75;;;13.07;100.00
43503;BME280;29098;48.184;16.298;2022-09-09T04:28:18;99236.94;;;12.99;100.00
43503;BME280;29098;48.184;16.298;2022-09-09T04:30:44;99233.09;;;13.15;100.00
43503;BME280;29098;48.184;16.298;2022-09-09T04:33:10;99234.53;;;13.11;100.00
43503;BME280;29098;48.184;16.298;2022-09-09T04:35:36;99238.19;;;13.17;100.00
43503;BME280;29098;48.184;16.298;2022-09-09T04:38:01;99243.91;;;13.13;100.00
43503;BME280;29098;48.184;16.298;2022-09-09T04:40:30;99252.59;;;12.94;100.00
43503;BME280;29098;48.184;16.298;2022-09-09T04:42:57;99261.16;;;12.96;100.00
43503;BME280;29098;48.184;16.298;2022-09-09T04:45:22;99262.38;;;13.00;100.00
43503;BME280;29098;48.184;16.298;2022-09-09T04:47:48;99261.38;;;13.01;100.00
43503;BME280;29098;48.184;16.298;2022-09-09T04:50:14;99263.00;;;13.02;100.00
43503;BME280;29098;48.184;16.298;2022-09-09T04:52:39;99266.66;;;13.08;100.00
43503;BME280;29098;48.184;16.298;2022-09-09T04:55:06;99266.06;;;12.99;100.00
43503;BME280;29098;48.184;16.298;2022-09-09T04:57:31;99278.88;;;13.09;100.00
43503;BME280;29098;48.184;16.298;2022-09-09T04:59:58;99265.00;;;12.93;100.00
43503;BME280;29098;48.184;16.298;2022-09-09T05:02:24;99264.56;;;12.90;100.00
43503;BME280;29098;48.184;16.298;2022-09-09T05:04:49;99270.72;;;12.97;100.00
43503;BME280;29098;48.184;16.298;2022-09-09T05:07:15;99265.78;;;12.80;100.00
43503;BME280;29098;48.184;16.298;2022-09-09T05:09:40;99273.09;;;12.78;100.00
43503;BME280;29098;48.184;16.298;2022-09-09T05:12:05;99270.22;;;12.73;100.00
43503;BME280;29098;48.184;16.298;2022-09-09T05:14:30;99280.44;;;12.76;100.00
43503;BME280;29098;48.184;16.298;2022-09-09T05:16:56;99274.56;;;12.87;100.00
43503;BME280;29098;48.184;16.298;2022-09-09T05:19:23;99278.25;;;13.00;100.00
43503;BME280;29098;48.184;16.298;2022-09-09T05:21:48;99278.44;;;12.92;100.00
43503;BME280;29098;48.184;16.298;2022-09-09T05:24:14;99280.84;;;12.80;100.00
43503;BME280;29098;48.184;16.298;2022-09-09T05:26:40;99275.16;;;12.90;100.00
43503;BME280;29098;48.184;16.298;2022-09-09T05:29:05;99271.94;;;13.01;100.00
43503;BME280;29098;48.184;16.298;2022-09-09T05:31:31;99266.28;;;13.18;100.00
43503;BME280;29098;48.184;16.298;2022-09-09T05:33:56;99273.81;;;13.21;100.00
43503;BME280;29098;48.184;16.298;2022-09-09T05:36:22;99290.34;;;13.29;100.00
43503;BME280;29098;48.184;16.298;2022-09-09T05:38:47;99289.53;;;13.29;100.00
43503;BME280;29098;48.184;16.298;2022-09-09T05:41:14;99286.25;;;13.27;100.00
43503;BME280;29098;48.184;16.298;2022-09-09T05:43:42;99283.81;;;13.32;100.00
43503;BME280;29098;48.184;16.298;2022-09-09T05:46:13;99283.88;;;13.46;100.00
43503;BME280;29098;48.184;16.298;2022-09-09T05:48:39;99279.59;;;13.45;100.00
43503;BME280;29098;48.184;16.298;2022-09-09T05:51:05;99278.94;;;13.36;100.00
43503;BME280;29098;48.184;16.298;2022-09-09T05:53:31;99276.91;;;13.31;100.00
43503;BME280;29098;48.184;16.298;2022-09-09T05:56:12;99285.72;;;13.45;100.00
43503;BME280;29098;48.184;16.298;2022-09-09T05:58:41;99284.44;;;13.34;100.00
43503;BME280;29098;48.184;16.298;2022-09-09T06:01:13;99286.13;;;13.49;100.00
43503;BME280;29098;48.184;16.298;2022-09-09T06:03:40;99282.88;;;13.47;100.00
43503;BME280;29098;48.184;16.298;2022-09-09T06:06:07;99271.84;;;13.50;100.00
43503;BME280;29098;48.184;16.298;2022-09-09T06:08:33;99281.44;;;13.58;100.00
43503;BME280;29098;48.184;16.298;2022-09-09T06:11:06;99271.25;;;13.75;100.00
43503;BME280;29098;48.184;16.298;2022-09-09T06:13:31;99257.41;;;13.86;100.00
43503;BME280;29098;48.184;16.298;2022-09-09T06:15:57;99259.03;;;13.60;100.00
43503;BME280;29098;48.184;16.298;2022-09-09T06:18:23;99257.41;;;13.86;100.00
43503;BME280;29098;48.184;16.298;2022-09-09T06:23:20;99262.69;;;14.00;99.94
43503;BME280;29098;48.184;16.298;2022-09-09T06:25:45;99261.25;;;14.04;99.35
43503;BME280;29098;48.184;16.298;2022-09-09T06:28:11;99263.66;;;14.25;98.84
43503;BME280;29098;48.184;16.298;2022-09-09T06:30:36;99256.06;;;14.36;97.87
43503;BME280;29098;48.184;16.298;2022-09-09T06:33:01;99251.34;;;14.45;98.32
43503;BME280;29098;48.184;16.298;2022-09-09T06:35:27;99247.63;;;14.59;97.30
43503;BME280;29098;48.184;16.298;2022-09-09T06:37:53;99252.47;;;14.76;96.79
43503;BME280;29098;48.184;16.298;2022-09-09T06:40:18;99247.50;;;14.93;96.54
43503;BME280;29098;48.184;16.298;2022-09-09T06:42:43;99257.03;;;15.07;94.76
43503;BME280;29098;48.184;16.298;2022-09-09T06:45:08;99265.53;;;15.16;95.07
43503;BME280;29098;48.184;16.298;2022-09-09T06:47:34;99267.19;;;15.17;95.84
43503;BME280;29098;48.184;16.298;2022-09-09T06:49:59;99268.53;;;15.27;94.68
43503;BME280;29098;48.184;16.298;2022-09-09T06:52:25;99271.59;;;15.30;94.72
43503;BME280;29098;48.184;16.298;2022-09-09T06:54:50;99264.38;;;15.38;93.94
43503;BME280;29098;48.184;16.298;2022-09-09T06:57:15;99257.28;;;15.31;94.96
43503;BME280;29098;48.184;16.298;2022-09-09T06:59:41;99262.31;;;15.40;95.42
43503;BME280;29098;48.184;16.298;2022-09-09T07:02:07;99255.16;;;15.40;94.80
43503;BME280;29098;48.184;16.298;2022-09-09T07:04:33;99253.91;;;15.43;95.37
43503;BME280;29098;48.184;16.298;2022-09-09T07:06:58;99256.09;;;15.53;94.85
43503;BME280;29098;48.184;16.298;2022-09-09T07:09:23;99250.94;;;15.58;94.59
43503;BME280;29098;48.184;16.298;2022-09-09T07:11:49;99264.19;;;15.65;95.29
43503;BME280;29098;48.184;16.298;2022-09-09T07:14:18;99266.34;;;15.74;94.00
43503;BME280;29098;48.184;16.298;2022-09-09T07:16:44;99269.66;;;15.70;94.09
43503;BME280;29098;48.184;16.298;2022-09-09T07:19:11;99260.66;;;15.71;94.10
43503;BME280;29098;48.184;16.298;2022-09-09T07:21:36;99252.84;;;15.76;92.91
43503;BME280;29098;48.184;16.298;2022-09-09T07:24:02;99254.03;;;15.80;92.73
43503;BME280;29098;48.184;16.298;2022-09-09T07:26:28;99253.97;;;15.87;93.05
43503;BME280;29098;48.184;16.298;2022-09-09T07:28:54;99259.56;;;16.04;92.32
43503;BME280;29098;48.184;16.298;2022-09-09T07:31:42;99265.63;;;16.11;92.23
43503;BME280;29098;48.184;16.298;2022-09-09T07:34:06;99264.09;;;16.22;91.58
43503;BME280;29098;48.184;16.298;2022-09-09T07:36:33;99262.63;;;16.26;92.13
43503;BME280;29098;48.184;16.298;2022-09-09T07:39:17;99260.53;;;16.47;91.37
43503;BME280;29098;48.184;16.298;2022-09-09T07:41:43;99267.84;;;16.70;90.14
43503;BME280;29098;48.184;16.298;2022-09-09T07:44:10;99263.25;;;16.78;90.16
43503;BME280;29098;48.184;16.298;2022-09-09T07:46:35;99268.41;;;16.91;89.63
43503;BME280;29098;48.184;16.298;2022-09-09T07:49:01;99266.53;;;17.10;87.76
43503;BME280;29098;48.184;16.298;2022-09-09T07:51:31;99282.22;;;17.31;86.99
43503;BME280;29098;48.184;16.298;2022-09-09T07:53:58;99279.09;;;17.34;86.35
43503;BME280;29098;48.184;16.298;2022-09-09T07:56:24;99280.38;;;17.43;85.93
43503;BME280;29098;48.184;16.298;2022-09-09T07:58:50;99270.91;;;17.47;86.32
43503;BME280;29098;48.184;16.298;2022-09-09T08:01:17;99268.47;;;17.58;85.81
43503;BME280;29098;48.184;16.298;2022-09-09T08:03:43;99273.13;;;17.62;84.07
43503;BME280;29098;48.184;16.298;2022-09-09T08:06:09;99281.59;;;17.71;83.77
43503;BME280;29098;48.184;16.298;2022-09-09T08:08:35;99278.94;;;17.83;82.92
43503;BME280;29098;48.184;16.298;2022-09-09T08:11:02;99282.88;;;17.92;82.95
43503;BME280;29098;48.184;16.298;2022-09-09T08:13:27;99278.03;;;18.01;83.45
43503;BME280;29098;48.184;16.298;2022-09-09T08:15:53;99289.53;;;18.14;83.67
43503;BME280;29098;48.184;16.298;2022-09-09T08:18:18;99289.75;;;18.24;82.68
43503;BME280;29098;48.184;16.298;2022-09-09T08:20:43;99272.81;;;18.30;78.67
43503;BME280;29098;48.184;16.298;2022-09-09T08:23:08;99277.31;;;18.42;77.32
43503;BME280;29098;48.184;16.298;2022-09-09T08:25:34;99282.75;;;18.47;79.49
43503;BME280;29098;48.184;16.298;2022-09-09T08:27:59;99291.53;;;18.59;79.84
43503;BME280;29098;48.184;16.298;2022-09-09T08:30:24;99290.59;;;18.66;80.82
43503;BME280;29098;48.184;16.298;2022-09-09T08:32:50;99286.75;;;18.73;80.14
43503;BME280;29098;48.184;16.298;2022-09-09T08:35:16;99287.66;;;18.79;79.28
43503;BME280;29098;48.184;16.298;2022-09-09T08:37:42;99292.63;;;18.87;78.06
43503;BME280;29098;48.184;16.298;2022-09-09T08:40:09;99281.81;;;18.82;77.73
43503;BME280;29098;48.184;16.298;2022-09-09T08:42:41;99282.41;;;18.84;75.94
43503;BME280;29098;48.184;16.298;2022-09-09T08:45:25;99279.94;;;18.95;76.61
43503;BME280;29098;48.184;16.298;2022-09-09T08:55:23;99261.16;;;19.19;74.81
43503;BME280;29098;48.184;16.298;2022-09-09T08:57:51;99263.25;;;19.16;74.46
43503;BME280;29098;48.184;16.298;2022-09-09T09:00:17;99267.06;;;19.21;74.33
43503;BME280;29098;48.184;16.298;2022-09-09T09:03:06;99272.00;;;19.29;75.93
43503;BME280;29098;48.184;16.298;2022-09-09T09:05:37;99267.19;;;19.43;74.55
43503;BME280;29098;48.184;16.298;2022-09-09T09:08:29;99266.59;;;19.58;73.28
43503;BME280;29098;48.184;16.298;2022-09-09T09:10:56;99254.06;;;19.76;72.92
43503;BME280;29098;48.184;16.298;2022-09-09T09:13:29;99250.78;;;19.74;70.53
43503;BME280;29098;48.184;16.298;2022-09-09T09:15:58;99247.69;;;19.82;67.96
43503;BME280;29098;48.184;16.298;2022-09-09T09:18:25;99254.09;;;19.81;68.67
43503;BME280;29098;48.184;16.298;2022-09-09T09:23:24;99252.25;;;19.98;67.78
43503;BME280;29098;48.184;16.298;2022-09-09T09:25:52;99262.03;;;20.10;66.29
43503;BME280;29098;48.184;16.298;2022-09-09T09:28:23;99254.97;;;20.21;66.80
43503;BME280;29098;48.184;16.298;2022-09-09T09:33:19;99241.97;;;20.30;62.96
43503;BME280;29098;48.184;16.298;2022-09-09T09:35:45;99243.59;;;20.31;64.80
43503;BME280;29098;48.184;16.298;2022-09-09T09:38:19;99238.09;;;20.43;63.26
43503;BME280;29098;48.184;16.298;2022-09-09T09:40:54;99236.84;;;20.50;63.52
43503;BME280;29098;48.184;16.298;2022-09-09T09:45:54;99235.63;;;20.63;59.73
43503;BME280;29098;48.184;16.298;2022-09-09T09:48:20;99230.09;;;20.70;59.83
43503;BME280;29098;48.184;16.298;2022-09-09T09:50:52;99224.38;;;20.84;59.84
43503;BME280;29098;48.184;16.298;2022-09-09T09:53:25;99230.53;;;20.84;62.21
43503;BME280;29098;48.184;16.298;2022-09-09T09:56:01;99230.31;;;20.91;60.02
43503;BME280;29098;48.184;16.298;2022-09-09T09:58:30;99218.31;;;20.71;60.85
43503;BME280;29098;48.184;16.298;2022-09-09T10:00:57;99218.38;;;20.76;59.31
43503;BME280;29098;48.184;16.298;2022-09-09T10:05:49;99222.06;;;21.25;58.64
43503;BME280;29098;48.184;16.298;2022-09-09T10:08:15;99229.31;;;21.68;57.11
43503;BME280;29098;48.184;16.298;2022-09-09T10:13:29;99220.38;;;21.84;58.75
43503;BME280;29098;48.184;16.298;2022-09-09T10:21:12;99221.53;;;21.99;56.89
43503;BME280;29098;48.184;16.298;2022-09-09T10:36:48;99216.53;;;21.75;55.28
43503;BME280;29098;48.184;16.298;2022-09-09T10:39:18;99222.56;;;21.93;56.36
43503;BME280;29098;48.184;16.298;2022-09-09T10:49:48;99217.31;;;22.29;57.25
43503;BME280;29098;48.184;16.298;2022-09-09T10:54:59;99216.47;;;22.92;55.89
43503;BME280;29098;48.184;16.298;2022-09-09T10:57:29;99221.31;;;23.26;55.27
43503;BME280;29098;48.184;16.298;2022-09-09T10:59:58;99224.81;;;23.11;54.24
43503;BME280;29098;48.184;16.298;2022-09-09T11:02:30;99225.59;;;23.02;54.36
43503;BME280;29098;48.184;16.298;2022-09-09T11:04:58;99220.75;;;23.14;55.05
43503;BME280;29098;48.184;16.298;2022-09-09T11:07:29;99218.94;;;23.35;52.65
43503;BME280;29098;48.184;16.298;2022-09-09T11:09:59;99215.16;;;23.31;54.12
43503;BME280;29098;48.184;16.298;2022-09-09T11:12:26;99210.84;;;23.20;54.24
43503;BME280;29098;48.184;16.298;2022-09-09T11:17:21;99214.53;;;22.67;55.19
43503;BME280;29098;48.184;16.298;2022-09-09T11:19:48;99212.66;;;22.73;55.66
43503;BME280;29098;48.184;16.298;2022-09-09T11:25:04;99215.63;;;22.81;54.42
43503;BME280;29098;48.184;16.298;2022-09-09T11:27:41;99209.47;;;23.02;53.85
43503;BME280;29098;48.184;16.298;2022-09-09T11:35:24;99210.03;;;23.09;54.24
43503;BME280;29098;48.184;16.298;2022-09-09T11:40:23;99202.22;;;23.23;54.25
43503;BME280;29098;48.184;16.298;2022-09-09T11:43:00;99204.66;;;23.40;53.19
43503;BME280;29098;48.184;16.298;2022-09-09T11:45:26;99192.81;;;23.41;54.50
43503;BME280;29098;48.184;16.298;2022-09-09T11:47:58;99189.03;;;23.63;54.62
43503;BME280;29098;48.184;16.298;2022-09-09T11:52:49;99183.00;;;23.97;53.10
43503;BME280;29098;48.184;16.298;2022-09-09T11:55:25;99185.72;;;23.87;53.46
43503;BME280;29098;48.184;16.298;2022-09-09T11:58:00;99180.63;;;23.85;53.48
43503;BME280;29098;48.184;16.298;2022-09-09T12:00:36;99185.47;;;23.88;52.31
43503;BME280;29098;48.184;16.298;2022-09-09T12:03:08;99193.22;;;24.05;51.84
43503;BME280;29098;48.184;16.298;2022-09-09T12:05:51;99194.53;;;24.03;51.77
43503;BME280;29098;48.184;16.298;2022-09-09T12:08:19;99195.25;;;24.34;50.80
43503;BME280;29098;48.184;16.298;2022-09-09T12:10:56;99187.44;;;24.83;48.83
43503;BME280;29098;48.184;16.298;2022-09-09T12:13:23;99180.19;;;25.13;47.68
43503;BME280;29098;48.184;16.298;2022-09-09T12:15:55;99177.31;;;25.34;47.06
43503;BME280;29098;48.184;16.298;2022-09-09T12:18:22;99173.97;;;25.48;47.94
43503;BME280;29098;48.184;16.298;2022-09-09T12:23:40;99160.97;;;27.75;41.28
43503;BME280;29098;48.184;16.298;2022-09-09T12:33:36;99156.25;;;27.67;42.03
43503;BME280;29098;48.184;16.298;2022-09-09T12:36:02;99155.06;;;26.78;43.62
43503;BME280;29098;48.184;16.298;2022-09-09T12:38:35;99154.81;;;26.17;45.41
43503;BME280;29098;48.184;16.298;2022-09-09T12:41:01;99154.41;;;25.85;44.92
43503;BME280;29098;48.184;16.298;2022-09-09T12:43:27;99155.34;;;25.46;46.48
43503;BME280;29098;48.184;16.298;2022-09-09T12:46:00;99144.63;;;25.11;46.52
43503;BME280;29098;48.184;16.298;2022-09-09T12:48:31;99145.69;;;24.75;48.44
43503;BME280;29098;48.184;16.298;2022-09-09T12:50:58;99142.94;;;24.46;46.32
43503;BME280;29098;48.184;16.298;2022-09-09T12:53:25;99139.50;;;24.35;47.21
43503;BME280;29098;48.184;16.298;2022-09-09T12:55:54;99132.38;;;24.10;49.28
43503;BME280;29098;48.184;16.298;2022-09-09T12:58:21;99132.41;;;23.94;49.33
43503;BME280;29098;48.184;16.298;2022-09-09T13:00:50;99127.66;;;23.70;50.85
43503;BME280;29098;48.184;16.298;2022-09-09T13:03:18;99123.94;;;23.61;50.75
43503;BME280;29098;48.184;16.298;2022-09-09T13:05:43;99128.28;;;23.36;51.99
43503;BME280;29098;48.184;16.298;2022-09-09T13:08:10;99121.84;;;23.16;51.87
43503;BME280;29098;48.184;16.298;2022-09-09T13:10:37;99120.25;;;22.99;53.18
43503;BME280;29098;48.184;16.298;2022-09-09T13:13:12;99107.59;;;23.00;52.52
43503;BME280;29098;48.184;16.298;2022-09-09T13:15:39;99112.69;;;22.91;52.53
43503;BME280;29098;48.184;16.298;2022-09-09T13:18:06;99109.50;;;22.84;52.92
43503;BME280;29098;48.184;16.298;2022-09-09T13:20:36;99106.78;;;22.74;52.92
43503;BME280;29098;48.184;16.298;2022-09-09T13:23:02;99110.28;;;22.69;53.08
43503;BME280;29098;48.184;16.298;2022-09-09T13:25:28;99108.94;;;22.51;53.65
43503;BME280;29098;48.184;16.298;2022-09-09T13:33:19;99119.63;;;22.40;53.65
43503;BME280;29098;48.184;16.298;2022-09-09T13:35:49;99119.06;;;22.33;53.68
43503;BME280;29098;48.184;16.298;2022-09-09T13:38:15;99116.34;;;22.17;54.51
43503;BME280;29098;48.184;16.298;2022-09-09T13:40:51;99112.84;;;22.17;54.57
43503;BME280;29098;48.184;16.298;2022-09-09T13:43:18;99112.84;;;22.12;55.42
43503;BME280;29098;48.184;16.298;2022-09-09T13:45:52;99113.13;;;22.10;53.87
43503;BME280;29098;48.184;16.298;2022-09-09T13:48:18;99102.34;;;22.05;53.55
43503;BME280;29098;48.184;16.298;2022-09-09T13:50:53;99103.94;;;21.96;55.12
43503;BME280;29098;48.184;16.298;2022-09-09T13:53:18;99101.22;;;21.90;55.28
43503;BME280;29098;48.184;16.298;2022-09-09T13:55:46;99106.53;;;21.70;56.09
43503;BME280;29098;48.184;16.298;2022-09-09T13:58:15;99107.31;;;21.70;56.01
43503;BME280;29098;48.184;16.298;2022-09-09T14:00:43;99106.22;;;21.66;56.32
43503;BME280;29098;48.184;16.298;2022-09-09T14:03:09;99110.47;;;21.62;56.04
43503;BME280;29098;48.184;16.298;2022-09-09T14:05:35;99116.13;;;21.60;55.81
43503;BME280;29098;48.184;16.298;2022-09-09T14:08:00;99116.75;;;21.30;59.84
43503;BME280;29098;48.184;16.298;2022-09-09T14:10:28;99119.78;;;21.06;62.76
43503;BME280;29098;48.184;16.298;2022-09-09T14:12:53;99133.88;;;20.91;64.46
43503;BME280;29098;48.184;16.298;2022-09-09T14:15:18;99135.69;;;20.85;66.24
43503;BME280;29098;48.184;16.298;2022-09-09T14:17:45;99135.84;;;20.46;69.32
43503;BME280;29098;48.184;16.298;2022-09-09T14:20:10;99144.69;;;20.46;70.08
43503;BME280;29098;48.184;16.298;2022-09-09T14:22:37;99141.59;;;20.32;71.48
43503;BME280;29098;48.184;16.298;2022-09-09T14:25:04;99146.44;;;20.08;73.34
43503;BME280;29098;48.184;16.298;2022-09-09T14:27:30;99149.75;;;19.76;76.22
43503;BME280;29098;48.184;16.298;2022-09-09T14:29:55;99147.34;;;19.57;78.06
43503;BME280;29098;48.184;16.298;2022-09-09T14:32:22;99144.88;;;19.33;80.16
43503;BME280;29098;48.184;16.298;2022-09-09T14:34:47;99144.72;;;19.23;81.93
43503;BME280;29098;48.184;16.298;2022-09-09T14:37:15;99141.72;;;19.02;84.48
43503;BME280;29098;48.184;16.298;2022-09-09T14:39:41;99142.53;;;19.02;86.32
43503;BME280;29098;48.184;16.298;2022-09-09T14:42:09;99142.88;;;18.94;88.06
43503;BME280;29098;48.184;16.298;2022-09-09T14:44:36;99144.59;;;19.00;87.92
43503;BME280;29098;48.184;16.298;2022-09-09T14:47:03;99144.53;;;18.95;88.02
43503;BME280;29098;48.184;16.298;2022-09-09T14:49:28;99144.75;;;18.94;88.55